sensor_id;sensor_type;location;lat;lon;timestamp;temperature;humidity
34492;DHT22;20737;49.908;8.126;2022-10-14T00:01:31;12.70;99.90
34492;DHT22;20737;49.908;8.126;2022-10-14T00:03:59;12.60;99.90
34492;DHT22;20737;49.908;8.126;2022-10-14T00:06:28;12.70;99.90
34492;DHT22;20737;49.908;8.126;2022-10-14T00:08:58;12.60;99.90
34492;DHT22;20737;49.908;8.126;2022-10-14T00:11:27;12.60;99.90
34492;DHT22;20737;49.908;8.126;2022-10-14T00:13:56;12.60;99.90
34492;DHT22;20737;49.908;8.126;2022-10-14T00:16:26;12.60;99.90
34492;DHT22;20737;49.908;8.126;2022-10-14T00:18:53;12.60;99.90
34492;DHT22;20737;49.908;8.126;2022-10-14T00:21:19;12.60;99.90
34492;DHT22;20737;49.908;8.126;2022-10-14T00:23:46;12.60;99.90
34492;DHT22;20737;49.908;8.126;2022-10-14T00:26:15;12.60;99.90
34492;DHT22;20737;49.908;8.126;2022-10-14T00:28:42;12.60;99.90
34492;DHT22;20737;49.908;8.126;2022-10-14T00:31:09;12.60;99.90
34492;DHT22;20737;49.908;8.126;2022-10-14T00:33:37;12.60;99.90
34492;DHT22;20737;49.908;8.126;2022-10-14T00:36:05;12.70;99.90
34492;DHT22;20737;49.908;8.126;2022-10-14T00:38:33;12.60;99.90
34492;DHT22;20737;49.908;8.126;2022-10-14T00:41:00;12.70;99.90
34492;DHT22;20737;49.908;8.126;2022-10-14T00:43:28;12.70;99.90
34492;DHT22;20737;49.908;8.126;2022-10-14T00:45:55;12.70;99.90
34492;DHT22;20737;49.908;8.126;2022-10-14T00:48:23;12.70;99.90
34492;DHT22;20737;49.908;8.126;2022-10-14T00:50:54;12.70;99.90
34492;DHT22;20737;49.908;8.126;2022-10-14T00:53:22;12.70;99.90
34492;DHT22;20737;49.908;8.126;2022-10-14T00:55:49;12.70;99.90
34492;DHT22;20737;49.908;8.126;2022-10-14T00:58:16;12.70;99.90
34492;DHT22;20737;49.908;8.126;2022-10-14T01:00:42;12.70;99.90
34492;DHT22;20737;49.908;8.126;2022-10-14T01:03:17;12.70;99.90
34492;DHT22;20737;49.908;8.126;2022-10-14T01:05:49;12.70;99.90
34492;DHT22;20737;49.908;8.126;2022-10-14T01:08:22;12.70;99.90
34492;DHT22;20737;49.908;8.126;2022-10-14T01:11:04;12.70;99.90
34492;DHT22;20737;49.908;8.126;2022-10-14T01:13:35;12.70;99.90
34492;DHT22;20737;49.908;8.126;2022-10-14T01:16:13;12.60;99.90
34492;DHT22;20737;49.908;8.126;2022-10-14T01:18:53;12.60;99.90
34492;DHT22;20737;49.908;8.126;2022-10-14T01:21:27;12.60;99.90
34492;DHT22;20737;49.908;8.126;2022-10-14T01:24:20;12.60;99.90
34492;DHT22;20737;49.908;8.126;2022-10-14T01:27:12;12.60;99.90
34492;DHT22;20737;49.908;8.126;2022-10-14T01:30:15;12.60;99.90
34492;DHT22;20737;49.908;8.126;2022-10-14T01:32:58;12.60;99.90
34492;DHT22;20737;49.908;8.126;2022-10-14T01:35:35;12.60;99.90
34492;DHT22;20737;49.908;8.126;2022-10-14T01:38:07;12.60;99.90
34492;DHT22;20737;49.908;8.126;2022-10-14T01:40:39;12.60;99.90
34492;DHT22;20737;49.908;8.126;2022-10-14T01:43:09;12.60;99.90
34492;DHT22;20737;49.908;8.126;2022-10-14T01:45:41;12.60;99.90
34492;DHT22;20737;49.908;8.126;2022-10-14T01:48:10;12.60;99.90
34492;DHT22;20737;49.908;8.126;2022-10-14T01:50:39;12.60;99.90
34492;DHT22;20737;49.908;8.126;2022-10-14T01:53:10;12.50;99.90
34492;DHT22;20737;49.908;8.126;2022-10-14T01:55:42;12.50;99.90
34492;DHT22;20737;49.908;8.126;2022-10-14T01:58:12;12.60;99.90
34492;DHT22;20737;49.908;8.126;2022-10-14T02:00:41;12.60;99.90
34492;DHT22;20737;49.908;8.126;2022-10-14T02:03:08;12.50;99.90
34492;DHT22;20737;49.908;8.126;2022-10-14T02:05:37;12.50;99.90
34492;DHT22;20737;49.908;8.126;2022-10-14T02:08:09;12.50;99.90
34492;DHT22;20737;49.908;8.126;2022-10-14T02:10:48;12.50;99.90
34492;DHT22;20737;49.908;8.126;2022-10-14T02:13:25;12.50;99.90
34492;DHT22;20737;49.908;8.126;2022-10-14T02:16:05;12.50;99.90
34492;DHT22;20737;49.908;8.126;2022-10-14T02:18:38;12.50;99.90
34492;DHT22;20737;49.908;8.126;2022-10-14T02:21:11;12.50;99.90
34492;DHT22;20737;49.908;8.126;2022-10-14T02:23:45;12.50;99.90
34492;DHT22;20737;49.908;8.126;2022-10-14T02:26:14;12.50;99.90
34492;DHT22;20737;49.908;8.126;2022-10-14T02:28:43;12.50;99.90
34492;DHT22;20737;49.908;8.126;2022-10-14T02:31:15;12.50;99.90
34492;DHT22;20737;49.908;8.126;2022-10-14T02:33:46;12.50;99.90
34492;DHT22;20737;49.908;8.126;2022-10-14T02:36:17;12.50;99.90
34492;DHT22;20737;49.908;8.126;2022-10-14T02:38:45;12.50;99.90
34492;DHT22;20737;49.908;8.126;2022-10-14T02:41:16;12.50;99.90
34492;DHT22;20737;49.908;8.126;2022-10-14T02:43:44;12.60;99.90
34492;DHT22;20737;49.908;8.126;2022-10-14T02:46:13;12.60;99.90
34492;DHT22;20737;49.908;8.126;2022-10-14T02:48:40;12.60;99.90
34492;DHT22;20737;49.908;8.126;2022-10-14T02:51:07;12.60;99.90
34492;DHT22;20737;49.908;8.126;2022-10-14T02:53:34;12.60;99.90
34492;DHT22;20737;49.908;8.126;2022-10-14T02:56:00;12.60;99.90
34492;DHT22;20737;49.908;8.126;2022-10-14T02:58:27;12.60;99.90
34492;DHT22;20737;49.908;8.126;2022-10-14T03:00:54;12.60;99.90
34492;DHT22;20737;49.908;8.126;2022-10-14T03:03:22;12.60;99.90
34492;DHT22;20737;49.908;8.126;2022-10-14T03:05:48;12.60;99.90
34492;DHT22;20737;49.908;8.126;2022-10-14T03:08:15;12.60;99.90
34492;DHT22;20737;49.908;8.126;2022-10-14T03:10:45;12.60;99.90
34492;DHT22;20737;49.908;8.126;2022-10-14T03:13:12;12.60;99.90
34492;DHT22;20737;49.908;8.126;2022-10-14T03:15:39;12.60;99.90
34492;DHT22;20737;49.908;8.126;2022-10-14T03:18:06;12.60;99.90
34492;DHT22;20737;49.908;8.126;2022-10-14T03:20:34;12.60;99.90
34492;DHT22;20737;49.908;8.126;2022-10-14T03:23:01;12.60;99.90
34492;DHT22;20737;49.908;8.126;2022-10-14T03:25:28;12.60;99.90
34492;DHT22;20737;49.908;8.126;2022-10-14T03:27:55;12.60;99.90
34492;DHT22;20737;49.908;8.126;2022-10-14T03:30:22;12.60;99.90
34492;DHT22;20737;49.908;8.126;2022-10-14T03:32:48;12.60;99.90
34492;DHT22;20737;49.908;8.126;2022-10-14T03:35:15;12.70;99.90
34492;DHT22;20737;49.908;8.126;2022-10-14T03:37:43;12.60;99.90
34492;DHT22;20737;49.908;8.126;2022-10-14T03:40:11;12.70;99.90
34492;DHT22;20737;49.908;8.126;2022-10-14T03:42:38;12.70;99.90
34492;DHT22;20737;49.908;8.126;2022-10-14T03:45:05;12.70;99.90
34492;DHT22;20737;49.908;8.126;2022-10-14T03:47:33;12.70;99.90
34492;DHT22;20737;49.908;8.126;2022-10-14T03:49:59;12.70;99.90
34492;DHT22;20737;49.908;8.126;2022-10-14T03:52:27;12.70;99.90
34492;DHT22;20737;49.908;8.126;2022-10-14T03:54:55;12.70;99.90
34492;DHT22;20737;49.908;8.126;2022-10-14T03:57:22;12.70;99.90
34492;DHT22;20737;49.908;8.126;2022-10-14T03:59:49;12.70;99.90
34492;DHT22;20737;49.908;8.126;2022-10-14T04:02:15;12.70;99.90
34492;DHT22;20737;49.908;8.126;2022-10-14T04:04:42;12.70;99.90
34492;DHT22;20737;49.908;8.126;2022-10-14T04:07:09;12.70;99.90
34492;DHT22;20737;49.908;8.126;2022-10-14T04:09:36;12.70;99.90
34492;DHT22;20737;49.908;8.126;2022-10-14T04:12:05;12.70;99.90
34492;DHT22;20737;49.908;8.126;2022-10-14T04:14:31;12.70;99.90
34492;DHT22;20737;49.908;8.126;2022-10-14T04:16:59;12.70;99.90
34492;DHT22;20737;49.908;8.126;2022-10-14T04:19:25;12.70;99.90
34492;DHT22;20737;49.908;8.126;2022-10-14T04:21:52;12.70;99.90
34492;DHT22;20737;49.908;8.126;2022-10-14T04:24:19;12.70;99.90
34492;DHT22;20737;49.908;8.126;2022-10-14T04:26:48;12.80;99.90
34492;DHT22;20737;49.908;8.126;2022-10-14T04:29:17;12.70;99.90
34492;DHT22;20737;49.908;8.126;2022-10-14T04:31:43;12.80;99.90
34492;DHT22;20737;49.908;8.126;2022-10-14T04:34:10;12.80;99.90
34492;DHT22;20737;49.908;8.126;2022-10-14T04:36:39;12.80;99.90
34492;DHT22;20737;49.908;8.126;2022-10-14T04:39:06;12.80;99.90
34492;DHT22;20737;49.908;8.126;2022-10-14T04:41:32;12.80;99.90
34492;DHT22;20737;49.908;8.126;2022-10-14T04:43:59;12.80;99.90
34492;DHT22;20737;49.908;8.126;2022-10-14T04:46:27;12.80;99.90
34492;DHT22;20737;49.908;8.126;2022-10-14T04:48:55;12.80;99.90
34492;DHT22;20737;49.908;8.126;2022-10-14T04:51:22;12.80;99.90
34492;DHT22;20737;49.908;8.126;2022-10-14T04:53:49;12.70;99.90
34492;DHT22;20737;49.908;8.126;2022-10-14T04:56:16;12.80;99.90
34492;DHT22;20737;49.908;8.126;2022-10-14T04:58:42;12.70;99.90
34492;DHT22;20737;49.908;8.126;2022-10-14T05:01:09;12.70;99.90
34492;DHT22;20737;49.908;8.126;2022-10-14T05:03:37;12.70;99.90
34492;DHT22;20737;49.908;8.126;2022-10-14T05:06:04;12.70;99.90
34492;DHT22;20737;49.908;8.126;2022-10-14T05:08:31;12.70;99.90
34492;DHT22;20737;49.908;8.126;2022-10-14T05:10:58;12.70;99.90
34492;DHT22;20737;49.908;8.126;2022-10-14T05:13:24;12.70;99.90
34492;DHT22;20737;49.908;8.126;2022-10-14T05:15:51;12.70;99.90
34492;DHT22;20737;49.908;8.126;2022-10-14T05:18:18;12.70;99.90
34492;DHT22;20737;49.908;8.126;2022-10-14T05:20:48;12.70;99.90
34492;DHT22;20737;49.908;8.126;2022-10-14T05:23:14;12.70;99.90
34492;DHT22;20737;49.908;8.126;2022-10-14T05:25:41;12.70;99.90
34492;DHT22;20737;49.908;8.126;2022-10-14T05:28:08;12.70;99.90
34492;DHT22;20737;49.908;8.126;2022-10-14T05:30:34;12.70;99.90
34492;DHT22;20737;49.908;8.126;2022-10-14T05:33:01;12.70;99.90
34492;DHT22;20737;49.908;8.126;2022-10-14T05:35:28;12.70;99.90
34492;DHT22;20737;49.908;8.126;2022-10-14T05:37:56;12.70;99.90
34492;DHT22;20737;49.908;8.126;2022-10-14T05:40:23;12.70;99.90
34492;DHT22;20737;49.908;8.126;2022-10-14T05:42:49;12.70;99.90
34492;DHT22;20737;49.908;8.126;2022-10-14T05:45:16;12.60;99.90
34492;DHT22;20737;49.908;8.126;2022-10-14T05:47:43;12.70;99.90
34492;DHT22;20737;49.908;8.126;2022-10-14T05:50:10;12.60;99.90
34492;DHT22;20737;49.908;8.126;2022-10-14T05:52:37;12.70;99.90
34492;DHT22;20737;49.908;8.126;2022-10-14T05:55:07;12.70;99.90
34492;DHT22;20737;49.908;8.126;2022-10-14T05:57:34;12.70;99.90
34492;DHT22;20737;49.908;8.126;2022-10-14T06:00:02;12.70;99.90
34492;DHT22;20737;49.908;8.126;2022-10-14T06:02:30;12.70;99.90
34492;DHT22;20737;49.908;8.126;2022-10-14T06:04:57;12.80;99.90
34492;DHT22;20737;49.908;8.126;2022-10-14T06:07:24;12.70;99.90
34492;DHT22;20737;49.908;8.126;2022-10-14T06:09:50;12.80;99.90
34492;DHT22;20737;49.908;8.126;2022-10-14T06:12:18;12.80;99.90
34492;DHT22;20737;49.908;8.126;2022-10-14T06:14:45;12.80;99.90
34492;DHT22;20737;49.908;8.126;2022-10-14T06:17:12;12.90;99.90
34492;DHT22;20737;49.908;8.126;2022-10-14T06:19:38;12.90;99.90
34492;DHT22;20737;49.908;8.126;2022-10-14T06:22:05;12.90;99.90
34492;DHT22;20737;49.908;8.126;2022-10-14T06:24:32;12.90;99.90
34492;DHT22;20737;49.908;8.126;2022-10-14T06:26:58;12.90;99.90
34492;DHT22;20737;49.908;8.126;2022-10-14T06:29:26;13.00;99.90
34492;DHT22;20737;49.908;8.126;2022-10-14T06:31:56;13.00;99.90
34492;DHT22;20737;49.908;8.126;2022-10-14T06:34:23;13.00;99.90
34492;DHT22;20737;49.908;8.126;2022-10-14T06:36:50;13.00;99.90
34492;DHT22;20737;49.908;8.126;2022-10-14T06:39:17;13.00;99.90
34492;DHT22;20737;49.908;8.126;2022-10-14T06:41:43;13.00;99.90
34492;DHT22;20737;49.908;8.126;2022-10-14T06:44:10;13.10;99.90
34492;DHT22;20737;49.908;8.126;2022-10-14T06:46:39;13.10;99.90
34492;DHT22;20737;49.908;8.126;2022-10-14T06:49:06;13.10;99.90
34492;DHT22;20737;49.908;8.126;2022-10-14T06:51:35;13.10;99.90
34492;DHT22;20737;49.908;8.126;2022-10-14T06:54:03;13.20;99.90
34492;DHT22;20737;49.908;8.126;2022-10-14T06:56:30;13.20;99.90
34492;DHT22;20737;49.908;8.126;2022-10-14T06:58:58;13.30;99.90
34492;DHT22;20737;49.908;8.126;2022-10-14T07:01:24;13.30;99.90
34492;DHT22;20737;49.908;8.126;2022-10-14T07:03:53;13.40;99.90
34492;DHT22;20737;49.908;8.126;2022-10-14T07:06:19;13.40;99.90
34492;DHT22;20737;49.908;8.126;2022-10-14T07:08:48;13.50;99.90
34492;DHT22;20737;49.908;8.126;2022-10-14T07:11:15;13.60;99.90
34492;DHT22;20737;49.908;8.126;2022-10-14T07:13:42;13.60;99.90
34492;DHT22;20737;49.908;8.126;2022-10-14T07:16:08;13.80;99.90
34492;DHT22;20737;49.908;8.126;2022-10-14T07:18:35;13.80;99.90
34492;DHT22;20737;49.908;8.126;2022-10-14T07:21:04;13.90;99.90
34492;DHT22;20737;49.908;8.126;2022-10-14T07:23:32;14.00;99.90
34492;DHT22;20737;49.908;8.126;2022-10-14T07:25:59;14.10;99.90
34492;DHT22;20737;49.908;8.126;2022-10-14T07:28:26;14.10;99.90
34492;DHT22;20737;49.908;8.126;2022-10-14T07:30:57;14.20;99.90
34492;DHT22;20737;49.908;8.126;2022-10-14T07:33:24;14.30;99.90
34492;DHT22;20737;49.908;8.126;2022-10-14T07:35:51;14.50;99.90
34492;DHT22;20737;49.908;8.126;2022-10-14T07:38:19;14.60;99.90
34492;DHT22;20737;49.908;8.126;2022-10-14T07:40:55;14.80;99.90
34492;DHT22;20737;49.908;8.126;2022-10-14T07:43:22;14.80;99.90
34492;DHT22;20737;49.908;8.126;2022-10-14T07:45:50;14.90;99.90
34492;DHT22;20737;49.908;8.126;2022-10-14T07:48:25;14.80;99.90
34492;DHT22;20737;49.908;8.126;2022-10-14T07:50:52;14.80;99.90
34492;DHT22;20737;49.908;8.126;2022-10-14T07:53:20;14.80;99.90
34492;DHT22;20737;49.908;8.126;2022-10-14T07:55:48;14.70;99.90
34492;DHT22;20737;49.908;8.126;2022-10-14T07:58:18;14.60;99.90
34492;DHT22;20737;49.908;8.126;2022-10-14T08:00:45;14.60;99.90
34492;DHT22;20737;49.908;8.126;2022-10-14T08:03:12;14.50;99.90
34492;DHT22;20737;49.908;8.126;2022-10-14T08:05:39;14.50;99.90
34492;DHT22;20737;49.908;8.126;2022-10-14T08:08:06;14.40;99.90
34492;DHT22;20737;49.908;8.126;2022-10-14T08:10:35;14.40;99.90
34492;DHT22;20737;49.908;8.126;2022-10-14T08:13:03;14.30;99.90
34492;DHT22;20737;49.908;8.126;2022-10-14T08:15:32;14.30;99.90
34492;DHT22;20737;49.908;8.126;2022-10-14T08:17:59;14.30;99.90
34492;DHT22;20737;49.908;8.126;2022-10-14T08:20:26;14.30;99.90
34492;DHT22;20737;49.908;8.126;2022-10-14T08:22:53;14.30;99.90
34492;DHT22;20737;49.908;8.126;2022-10-14T08:25:20;14.30;99.90
34492;DHT22;20737;49.908;8.126;2022-10-14T08:27:49;14.30;99.90
34492;DHT22;20737;49.908;8.126;2022-10-14T08:30:18;14.30;99.90
34492;DHT22;20737;49.908;8.126;2022-10-14T08:32:44;14.30;99.90
34492;DHT22;20737;49.908;8.126;2022-10-14T08:35:11;14.30;99.90
34492;DHT22;20737;49.908;8.126;2022-10-14T08:37:38;14.30;99.90
34492;DHT22;20737;49.908;8.126;2022-10-14T08:40:06;14.40;99.90
34492;DHT22;20737;49.908;8.126;2022-10-14T08:42:38;14.60;99.90
34492;DHT22;20737;49.908;8.126;2022-10-14T08:45:14;14.80;99.90
34492;DHT22;20737;49.908;8.126;2022-10-14T08:47:44;15.00;99.90
34492;DHT22;20737;49.908;8.126;2022-10-14T08:50:21;15.20;99.90
34492;DHT22;20737;49.908;8.126;2022-10-14T08:52:53;15.40;99.90
34492;DHT22;20737;49.908;8.126;2022-10-14T08:55:26;15.80;99.90
34492;DHT22;20737;49.908;8.126;2022-10-14T08:57:58;16.00;99.90
34492;DHT22;20737;49.908;8.126;2022-10-14T09:00:28;16.30;99.90
34492;DHT22;20737;49.908;8.126;2022-10-14T09:02:58;16.50;99.90
34492;DHT22;20737;49.908;8.126;2022-10-14T09:05:26;16.70;99.90
34492;DHT22;20737;49.908;8.126;2022-10-14T09:07:54;17.00;99.90
34492;DHT22;20737;49.908;8.126;2022-10-14T09:10:26;17.30;99.90
34492;DHT22;20737;49.908;8.126;2022-10-14T09:12:59;17.30;99.90
34492;DHT22;20737;49.908;8.126;2022-10-14T09:15:34;17.20;99.90
34492;DHT22;20737;49.908;8.126;2022-10-14T09:18:05;17.20;99.90
34492;DHT22;20737;49.908;8.126;2022-10-14T09:20:36;17.30;99.90
34492;DHT22;20737;49.908;8.126;2022-10-14T09:23:11;17.70;99.90
34492;DHT22;20737;49.908;8.126;2022-10-14T09:25:42;17.90;99.90
34492;DHT22;20737;49.908;8.126;2022-10-14T09:28:10;17.90;99.90
34492;DHT22;20737;49.908;8.126;2022-10-14T09:30:39;18.00;99.90
34492;DHT22;20737;49.908;8.126;2022-10-14T09:33:08;18.00;99.90
34492;DHT22;20737;49.908;8.126;2022-10-14T09:35:40;17.70;99.90
34492;DHT22;20737;49.908;8.126;2022-10-14T09:38:09;17.60;99.90
34492;DHT22;20737;49.908;8.126;2022-10-14T09:40:37;17.50;99.90
34492;DHT22;20737;49.908;8.126;2022-10-14T09:43:15;17.30;99.90
34492;DHT22;20737;49.908;8.126;2022-10-14T09:45:49;17.20;99.90
34492;DHT22;20737;49.908;8.126;2022-10-14T09:48:19;17.00;99.90
34492;DHT22;20737;49.908;8.126;2022-10-14T09:50:51;16.90;99.90
34492;DHT22;20737;49.908;8.126;2022-10-14T09:53:26;16.60;99.90
34492;DHT22;20737;49.908;8.126;2022-10-14T09:55:55;16.60;99.90
34492;DHT22;20737;49.908;8.126;2022-10-14T09:58:28;16.70;99.90
34492;DHT22;20737;49.908;8.126;2022-10-14T10:00:59;16.70;99.90
34492;DHT22;20737;49.908;8.126;2022-10-14T10:03:28;16.80;99.90
34492;DHT22;20737;49.908;8.126;2022-10-14T10:06:05;16.90;99.90
34492;DHT22;20737;49.908;8.126;2022-10-14T10:08:34;16.90;99.90
34492;DHT22;20737;49.908;8.126;2022-10-14T10:11:03;16.80;99.90
34492;DHT22;20737;49.908;8.126;2022-10-14T10:13:33;16.90;99.90
34492;DHT22;20737;49.908;8.126;2022-10-14T10:16:03;17.00;99.90
34492;DHT22;20737;49.908;8.126;2022-10-14T10:18:30;17.00;99.90
34492;DHT22;20737;49.908;8.126;2022-10-14T10:21:02;16.90;99.90
34492;DHT22;20737;49.908;8.126;2022-10-14T10:23:31;16.90;99.90
34492;DHT22;20737;49.908;8.126;2022-10-14T10:26:14;16.80;99.90
34492;DHT22;20737;49.908;8.126;2022-10-14T10:28:44;16.70;99.90
34492;DHT22;20737;49.908;8.126;2022-10-14T10:31:20;16.60;99.90
34492;DHT22;20737;49.908;8.126;2022-10-14T10:33:56;16.50;99.90
34492;DHT22;20737;49.908;8.126;2022-10-14T10:36:29;16.40;99.90
34492;DHT22;20737;49.908;8.126;2022-10-14T10:38:59;16.40;99.90
34492;DHT22;20737;49.908;8.126;2022-10-14T10:41:41;16.40;99.90
34492;DHT22;20737;49.908;8.126;2022-10-14T10:44:26;16.40;99.90
34492;DHT22;20737;49.908;8.126;2022-10-14T10:47:12;16.40;99.90
34492;DHT22;20737;49.908;8.126;2022-10-14T10:49:47;16.30;99.90
34492;DHT22;20737;49.908;8.126;2022-10-14T10:52:21;16.30;99.90
34492;DHT22;20737;49.908;8.126;2022-10-14T10:54:55;16.20;99.90
34492;DHT22;20737;49.908;8.126;2022-10-14T10:57:34;16.20;99.90
34492;DHT22;20737;49.908;8.126;2022-10-14T11:00:08;16.20;99.90
34492;DHT22;20737;49.908;8.126;2022-10-14T11:02:59;16.10;99.90
34492;DHT22;20737;49.908;8.126;2022-10-14T11:05:36;16.10;99.90
34492;DHT22;20737;49.908;8.126;2022-10-14T11:11:15;16.20;99.90
34492;DHT22;20737;49.908;8.126;2022-10-14T11:14:12;16.10;99.90
34492;DHT22;20737;49.908;8.126;2022-10-14T11:16:45;16.10;99.90
34492;DHT22;20737;49.908;8.126;2022-10-14T11:19:23;16.00;99.90
34492;DHT22;20737;49.908;8.126;2022-10-14T11:21:59;16.10;99.90
34492;DHT22;20737;49.908;8.126;2022-10-14T11:24:40;16.00;99.90
34492;DHT22;20737;49.908;8.126;2022-10-14T11:27:11;15.90;99.90
34492;DHT22;20737;49.908;8.126;2022-10-14T11:29:48;15.90;99.90
34492;DHT22;20737;49.908;8.126;2022-10-14T11:32:22;15.90;99.90
34492;DHT22;20737;49.908;8.126;2022-10-14T11:34:55;15.90;99.90
34492;DHT22;20737;49.908;8.126;2022-10-14T11:37:28;15.90;99.90
34492;DHT22;20737;49.908;8.126;2022-10-14T11:40:02;15.80;99.90
34492;DHT22;20737;49.908;8.126;2022-10-14T11:42:40;15.70;99.90
34492;DHT22;20737;49.908;8.126;2022-10-14T11:45:32;15.70;99.90
34492;DHT22;20737;49.908;8.126;2022-10-14T11:48:11;15.70;99.90
34492;DHT22;20737;49.908;8.126;2022-10-14T11:50:46;15.70;99.90
34492;DHT22;20737;49.908;8.126;2022-10-14T11:53:16;15.60;99.90
34492;DHT22;20737;49.908;8.126;2022-10-14T11:55:46;15.60;99.90
34492;DHT22;20737;49.908;8.126;2022-10-14T11:58:20;15.70;99.90
34492;DHT22;20737;49.908;8.126;2022-10-14T12:00:51;15.70;99.90
34492;DHT22;20737;49.908;8.126;2022-10-14T12:03:46;15.70;99.90
34492;DHT22;20737;49.908;8.126;2022-10-14T12:06:20;15.80;99.90
34492;DHT22;20737;49.908;8.126;2022-10-14T12:08:50;15.80;99.90
34492;DHT22;20737;49.908;8.126;2022-10-14T12:11:27;15.90;99.90
34492;DHT22;20737;49.908;8.126;2022-10-14T12:14:00;15.90;99.90
34492;DHT22;20737;49.908;8.126;2022-10-14T12:16:28;16.00;99.90
34492;DHT22;20737;49.908;8.126;2022-10-14T12:18:56;15.90;99.90
34492;DHT22;20737;49.908;8.126;2022-10-14T12:21:29;15.90;99.90
34492;DHT22;20737;49.908;8.126;2022-10-14T12:24:02;16.00;99.90
34492;DHT22;20737;49.908;8.126;2022-10-14T12:26:50;16.10;99.90
34492;DHT22;20737;49.908;8.126;2022-10-14T12:29:21;16.00;99.90
34492;DHT22;20737;49.908;8.126;2022-10-14T12:32:05;16.00;99.90
34492;DHT22;20737;49.908;8.126;2022-10-14T12:34:34;16.00;99.90
34492;DHT22;20737;49.908;8.126;2022-10-14T12:40:28;16.10;99.90
34492;DHT22;20737;49.908;8.126;2022-10-14T12:43:20;16.20;99.90
34492;DHT22;20737;49.908;8.126;2022-10-14T12:46:09;16.10;99.90
34492;DHT22;20737;49.908;8.126;2022-10-14T12:48:43;16.10;99.90
34492;DHT22;20737;49.908;8.126;2022-10-14T12:51:15;16.00;99.90
34492;DHT22;20737;49.908;8.126;2022-10-14T12:54:10;16.00;99.90
34492;DHT22;20737;49.908;8.126;2022-10-14T12:56:43;16.00;99.90
34492;DHT22;20737;49.908;8.126;2022-10-14T12:59:22;16.00;99.90
34492;DHT22;20737;49.908;8.126;2022-10-14T13:01:54;16.00;99.90
34492;DHT22;20737;49.908;8.126;2022-10-14T13:04:22;16.00;99.90
34492;DHT22;20737;49.908;8.126;2022-10-14T13:07:12;16.00;99.90
34492;DHT22;20737;49.908;8.126;2022-10-14T13:09:39;16.00;99.90
34492;DHT22;20737;49.908;8.126;2022-10-14T13:15:48;16.10;99.90
34492;DHT22;20737;49.908;8.126;2022-10-14T13:18:35;16.00;99.90
34492;DHT22;20737;49.908;8.126;2022-10-14T13:21:03;16.10;99.90
34492;DHT22;20737;49.908;8.126;2022-10-14T13:23:37;16.10;99.90
34492;DHT22;20737;49.908;8.126;2022-10-14T13:26:18;16.00;99.90
34492;DHT22;20737;49.908;8.126;2022-10-14T13:28:54;16.00;99.90
34492;DHT22;20737;49.908;8.126;2022-10-14T13:31:27;16.00;99.90
34492;DHT22;20737;49.908;8.126;2022-10-14T13:34:00;15.90;99.90
34492;DHT22;20737;49.908;8.126;2022-10-14T13:36:32;15.90;99.90
34492;DHT22;20737;49.908;8.126;2022-10-14T13:39:02;15.90;99.90
34492;DHT22;20737;49.908;8.126;2022-10-14T13:41:29;15.90;99.90
34492;DHT22;20737;49.908;8.126;2022-10-14T13:44:00;15.90;99.90
34492;DHT22;20737;49.908;8.126;2022-10-14T13:46:34;16.00;99.90
34492;DHT22;20737;49.908;8.126;2022-10-14T13:49:05;16.00;99.90
34492;DHT22;20737;49.908;8.126;2022-10-14T13:51:42;16.00;99.90
34492;DHT22;20737;49.908;8.126;2022-10-14T13:54:15;16.10;99.90
34492;DHT22;20737;49.908;8.126;2022-10-14T13:56:43;16.10;99.90
34492;DHT22;20737;49.908;8.126;2022-10-14T13:59:18;16.00;99.90
34492;DHT22;20737;49.908;8.126;2022-10-14T14:01:49;16.10;99.90
34492;DHT22;20737;49.908;8.126;2022-10-14T14:04:22;16.00;99.90
34492;DHT22;20737;49.908;8.126;2022-10-14T14:06:50;16.00;99.90
34492;DHT22;20737;49.908;8.126;2022-10-14T14:09:20;16.00;99.90
34492;DHT22;20737;49.908;8.126;2022-10-14T14:11:47;16.00;99.90
34492;DHT22;20737;49.908;8.126;2022-10-14T14:14:18;16.10;99.90
34492;DHT22;20737;49.908;8.126;2022-10-14T14:16:52;16.10;99.90
34492;DHT22;20737;49.908;8.126;2022-10-14T14:19:21;16.10;99.90
34492;DHT22;20737;49.908;8.126;2022-10-14T14:21:48;16.10;99.90
34492;DHT22;20737;49.908;8.126;2022-10-14T14:24:22;16.10;99.90
34492;DHT22;20737;49.908;8.126;2022-10-14T14:26:52;16.10;99.90
34492;DHT22;20737;49.908;8.126;2022-10-14T14:29:24;16.10;99.90
34492;DHT22;20737;49.908;8.126;2022-10-14T14:31:52;16.10;99.90
34492;DHT22;20737;49.908;8.126;2022-10-14T14:34:21;16.10;99.90
34492;DHT22;20737;49.908;8.126;2022-10-14T14:36:48;16.10;99.90
34492;DHT22;20737;49.908;8.126;2022-10-14T14:39:20;16.10;99.90
34492;DHT22;20737;49.908;8.126;2022-10-14T14:41:49;16.10;99.90
34492;DHT22;20737;49.908;8.126;2022-10-14T14:44:18;16.10;99.90
34492;DHT22;20737;49.908;8.126;2022-10-14T14:46:46;16.20;99.90
34492;DHT22;20737;49.908;8.126;2022-10-14T14:49:17;16.10;99.90
34492;DHT22;20737;49.908;8.126;2022-10-14T14:51:46;16.10;99.90
34492;DHT22;20737;49.908;8.126;2022-10-14T14:54:17;16.10;99.90
34492;DHT22;20737;49.908;8.126;2022-10-14T14:56:46;16.10;99.90
34492;DHT22;20737;49.908;8.126;2022-10-14T14:59:23;16.10;99.90
34492;DHT22;20737;49.908;8.126;2022-10-14T15:01:53;16.10;99.90
34492;DHT22;20737;49.908;8.126;2022-10-14T15:04:23;16.10;99.90
34492;DHT22;20737;49.908;8.126;2022-10-14T15:06:56;16.00;99.90
34492;DHT22;20737;49.908;8.126;2022-10-14T15:09:29;16.00;99.90
34492;DHT22;20737;49.908;8.126;2022-10-14T15:12:00;16.00;99.90
34492;DHT22;20737;49.908;8.126;2022-10-14T15:14:33;16.00;99.90
34492;DHT22;20737;49.908;8.126;2022-10-14T15:17:00;15.90;99.90
34492;DHT22;20737;49.908;8.126;2022-10-14T15:19:34;15.90;99.90
34492;DHT22;20737;49.908;8.126;2022-10-14T15:22:29;15.80;99.90
34492;DHT22;20737;49.908;8.126;2022-10-14T15:25:02;15.80;99.90
34492;DHT22;20737;49.908;8.126;2022-10-14T15:27:50;15.80;99.90
34492;DHT22;20737;49.908;8.126;2022-10-14T15:30:29;15.70;99.90
34492;DHT22;20737;49.908;8.126;2022-10-14T15:33:03;15.70;99.90
34492;DHT22;20737;49.908;8.126;2022-10-14T15:35:37;15.70;99.90
34492;DHT22;20737;49.908;8.126;2022-10-14T15:38:09;15.70;99.90
34492;DHT22;20737;49.908;8.126;2022-10-14T15:40:36;15.60;99.90
34492;DHT22;20737;49.908;8.126;2022-10-14T15:43:08;15.60;99.90
34492;DHT22;20737;49.908;8.126;2022-10-14T15:45:36;15.60;99.90
34492;DHT22;20737;49.908;8.126;2022-10-14T15:48:05;15.60;99.90
34492;DHT22;20737;49.908;8.126;2022-10-14T15:50:31;15.60;99.90
34492;DHT22;20737;49.908;8.126;2022-10-14T15:53:02;15.50;99.90
34492;DHT22;20737;49.908;8.126;2022-10-14T15:55:29;15.50;99.90
34492;DHT22;20737;49.908;8.126;2022-10-14T15:57:59;15.50;99.90
34492;DHT22;20737;49.908;8.126;2022-10-14T16:00:26;15.50;99.90
34492;DHT22;20737;49.908;8.126;2022-10-14T16:02:54;15.50;99.90